WetterOnline ( https://www.wetteronline.de )

Wetter aktuell Luckenwalde

Aktuelles Wetter: Baruth (55m)

6-stündlich | Neueste Meldungen
Ortszeit Temperatur Wetter
Mi, 17.07. 20:00 21.4° C bewölkt
Mi, 17.07. 14:00 20.1° C leicht bewölkt
Mi, 17.07. 8:00 13.6° C bedeckt
Mi, 17.07. 2:00 12.9° C wolkenlos
Di, 16.07. 20:00 19.5° C bewölkt
Di, 16.07. 14:00 17.9° C bedeckt
Di, 16.07. 8:00 13.6° C Sprühregen
Di, 16.07. 2:00 14.3° C bedeckt
Ortszeit Temperatur Wetter
Mi, 17.07. 21:00 17.8° C bedeckt
Mi, 17.07. 20:50 17.8° C bedeckt
Mi, 17.07. 20:40 19.0° C wolkig
Mi, 17.07. 20:30 19.8° C fast wolkenlos
Mi, 17.07. 20:20 19.8° C fast wolkenlos
Mi, 17.07. 20:10 20.3° C leicht bewölkt
Mi, 17.07. 20:00 21.4° C bewölkt
Mi, 17.07. 19:30 23.6° C bewölkt
Mi, 17.07. 19:00 22.8° C wolkig
Mi, 17.07. 18:30 23.2° C bewölkt
Mi, 17.07. 18:00 22.4° C bewölkt
Ortszeit Relative Feuchte Sichtweite
Mi, 17.07. 20:00 46% 55 km
Mi, 17.07. 14:00 58% 35 km
Mi, 17.07. 8:00 88% 21 km
Mi, 17.07. 2:00 94% 19 km
Di, 16.07. 20:00 63% 70 km
Di, 16.07. 14:00 65% 70 km
Di, 16.07. 8:00 87% 30 km
Di, 16.07. 2:00 70% 40 km
Ortszeit Relative Feuchte Sichtweite
Mi, 17.07. 21:00 71% 40 km
Mi, 17.07. 20:50 71% -
Mi, 17.07. 20:40 58% -
Mi, 17.07. 20:30 54% 55 km
Mi, 17.07. 20:20 54% -
Mi, 17.07. 20:10 50% -
Mi, 17.07. 20:00 46% 55 km
Mi, 17.07. 19:30 40% 55 km
Mi, 17.07. 19:00 40% 60 km
Mi, 17.07. 18:30 42% 70 km
Mi, 17.07. 18:00 48% 50 km
Ortszeit Niederschlagsmenge Niederschlagsart
Mi, 17.07. 20:00 0.0 l/m2 in 12 Std. -
Mi, 17.07. 14:00 0.0 l/m2 in 6 Std. -
Mi, 17.07. 8:00 0.0 l/m2 in 12 Std. -
Mi, 17.07. 2:00 0.0 l/m2 in 6 Std. -
Di, 16.07. 20:00 0.1 l/m2 in 12 Std. -
Di, 16.07. 14:00 0.1 l/m2 in 6 Std. Sprühregen
Di, 16.07. 8:00 0.1 l/m2 in 12 Std. Regen
Di, 16.07. 2:00 0.0 l/m2 in 6 Std. -
Ortszeit Niederschlagsmenge Niederschlagsart
Mi, 17.07. 21:00 0.0 l/m2 in 1 Std. -
Mi, 17.07. 20:50 keine Meldung -
Mi, 17.07. 20:40 keine Meldung -
Mi, 17.07. 20:30 0.0 l/m2 in 1 Std. -
Mi, 17.07. 20:20 keine Meldung -
Mi, 17.07. 20:10 keine Meldung -
Mi, 17.07. 20:00 0.0 l/m2 in 1 Std. -
Mi, 17.07. 19:30 0.0 l/m2 in 1 Std. -
Mi, 17.07. 19:00 0.0 l/m2 in 1 Std. -
Mi, 17.07. 18:30 0.0 l/m2 in 1 Std. -
Mi, 17.07. 18:00 0.0 l/m2 in 1 Std. -
Ortszeit Stärke Spitze Richtung
km/h Bft. km/h Grad Sektor
Mi, 17.07. 20:00 2 1 15 10° N
Mi, 17.07. 14:00 11 2 22 250° W
Mi, 17.07. 8:00 14 3 25 270° W
Mi, 17.07. 2:00 11 2 32 260° W
Di, 16.07. 20:00 20 4 39 260° W
Di, 16.07. 14:00 20 4 35 280° W
Di, 16.07. 8:00 17 3 33 270° W
Di, 16.07. 2:00 7 2 29 250° W
Ortszeit Stärke Spitze Richtung
km/h Bft. km/h Grad Sektor
Mi, 17.07. 21:00 0 0 4 - -
Mi, 17.07. 20:50 2 1 - 340° N
Mi, 17.07. 20:40 2 1 - 340° N
Mi, 17.07. 20:30 0 0 4 - -
Mi, 17.07. 20:20 2 1 - 330° NW
Mi, 17.07. 20:10 2 1 - 340° N
Mi, 17.07. 20:00 2 1 7 10° N
Mi, 17.07. 19:30 2 1 7 280° W
Mi, 17.07. 19:00 4 1 14 70° O
Mi, 17.07. 18:30 7 2 15 50° NO
Mi, 17.07. 18:00 2 1 13 40° NO
Ortszeit Untergrenze Bedeckung Gattung
total tief tief mittel hoch
Mi, 17.07. 20:00 3300 m 7/8 7/8 - - -
Mi, 17.07. 14:00 930 m 8/8 1/8 - - -
Mi, 17.07. 8:00 300 m 8/8 8/8 - - -
Mi, 17.07. 2:00 7800 m 0/8 0/8 - - -
Di, 16.07. 20:00 1230 m 7/8 7/8 - - -
Di, 16.07. 14:00 750 m 8/8 8/8 - - -
Di, 16.07. 8:00 420 m 8/8 8/8 - - -
Di, 16.07. 2:00 1140 m 8/8 8/8 - - -
Ortszeit Bedeckungsgrad in Achtel und Wolkenuntergrenze
Mi, 17.07. 21:00 8(5400m)
Mi, 17.07. 20:50 8(5400m)
Mi, 17.07. 20:40 6(5400m)
Mi, 17.07. 20:30 1(5700m)
Mi, 17.07. 20:20 1(5700m)
Mi, 17.07. 20:10 3(3300m)
Mi, 17.07. 20:00 7(3300m) 7(5700m)
Mi, 17.07. 19:30 7(1800m) 7(5700m) 8(8100m)
Mi, 17.07. 19:00 7(1800m)
Mi, 17.07. 18:30 7(1800m)
Mi, 17.07. 18:00 7(1800m) 7(8100m)
Ortszeit Luftdruck NN (hPa) Tendenz (hPa in 3 Std.)
Mi, 17.07. 20:00 1013 - 0,7
Mi, 17.07. 14:00 1014 - 0,8
Mi, 17.07. 8:00 1015 + 0,3
Mi, 17.07. 2:00 1015 + 0,7
Di, 16.07. 20:00 1014 - 0,5
Di, 16.07. 14:00 1015 - 0,2
Di, 16.07. 8:00 1015 + 0,4
Di, 16.07. 2:00 1015 - 0,5
Ortszeit Luftdruck NN (hPa) Tendenz (hPa in 3 Std.)
Mi, 17.07. 21:00 1013 - 0,2
Mi, 17.07. 20:50 1013 keine Meldung
Mi, 17.07. 20:40 1013 keine Meldung
Mi, 17.07. 20:30 1013 - 0,5
Mi, 17.07. 20:20 1013 keine Meldung
Mi, 17.07. 20:10 1013 keine Meldung
Mi, 17.07. 20:00 1013 - 0,7
Mi, 17.07. 19:30 1013 - 0,9
Mi, 17.07. 19:00 1013 - 1,0
Mi, 17.07. 18:30 1013 - 1,0
Mi, 17.07. 18:00 1013 - 1,1
Ortszeit Schneehöhe (cm)
Mi, 17.07. 20:00 -
Mi, 17.07. 14:00 -
Mi, 17.07. 8:00 -
Mi, 17.07. 2:00 -
Di, 16.07. 20:00 -
Di, 16.07. 14:00 -
Di, 16.07. 8:00 -
Di, 16.07. 2:00 -
Ortszeit Schneehöhe (cm)
Mi, 17.07. 21:00 -
Mi, 17.07. 20:50 -
Mi, 17.07. 20:40 -
Mi, 17.07. 20:30 -
Mi, 17.07. 20:20 -
Mi, 17.07. 20:10 -
Mi, 17.07. 20:00 -
Mi, 17.07. 19:30 -
Mi, 17.07. 19:00 -
Mi, 17.07. 18:30 -
Mi, 17.07. 18:00 -
Link zu dieser Seite / Seite empfehlen

Das Wetter in ...